Time;durP1;ratioP1;P1;durP2;ratioP2;P2;SDS_P1;SDS_P2;PMS_P1;PMS_P2;Temp;Humidity;BMP_temperature;BMP_pressure;BME280_temperature;BME280_humidity;BME280_pressure;Samples;Min_cycle;Max_cycle;Signal;HPM_P1;HPM_P2
2022/05/25 03:01:26;;;;;;;10.80;10.20;;;13.10;99.90;;;;;;5481345;23;20679;-77
2022/05/25 03:03:52;;;;;;;10.87;9.93;;;13.10;99.90;;;;;;4985543;28;20227;-76
2022/05/25 03:06:18;;;;;;;17.27;16.43;;;13.10;99.90;;;;;;4975908;28;20232;-76
2022/05/25 03:08:44;;;;;;;13.93;13.20;;;13.10;99.90;;;;;;4971073;28;20200;-76
2022/05/25 03:11:11;;;;;;;20.80;19.47;;;13.10;99.90;;;;;;4967627;28;20220;-76
2022/05/25 03:13:37;;;;;;;16.17;15.37;;;13.10;99.90;;;;;;4981559;23;20182;-74
2022/05/25 03:16:07;;;;;;;16.27;15.53;;;13.10;99.90;;;;;;4974715;28;20189;-74
2022/05/25 03:18:34;;;;;;;15.27;14.40;;;13.00;99.90;;;;;;4985049;28;20185;-74
2022/05/25 03:20:59;;;;;;;11.77;11.20;;;13.00;99.90;;;;;;4971034;28;20263;-74
2022/05/25 03:23:26;;;;;;;8.63;8.07;;;13.00;99.90;;;;;;4971126;28;20193;-74
2022/05/25 03:25:52;;;;;;;10.77;10.13;;;13.00;99.90;;;;;;4951856;29;20205;-74
2022/05/25 03:28:18;;;;;;;12.87;11.93;;;13.00;99.90;;;;;;4951745;28;20665;-74
2022/05/25 03:30:46;;;;;;;12.57;11.93;;;12.90;99.90;;;;;;4955674;28;20236;-68
2022/05/25 03:33:13;;;;;;;10.00;9.50;;;12.90;99.90;;;;;;4955887;28;20182;-68
2022/05/25 03:35:39;;;;;;;11.27;10.57;;;12.90;99.90;;;;;;4954533;29;20201;-68
2022/05/25 03:38:05;;;;;;;10.37;9.83;;;12.90;99.90;;;;;;4953919;29;20276;-67
2022/05/25 03:40:32;;;;;;;11.10;10.53;;;12.90;99.90;;;;;;4955463;29;20185;-68
2022/05/25 03:42:59;;;;;;;8.87;8.13;;;12.90;99.90;;;;;;4955810;28;20190;-67
2022/05/25 03:45:25;;;;;;;23.13;21.97;;;12.90;99.90;;;;;;4955749;29;20210;-68
2022/05/25 03:47:51;;;;;;;18.73;17.43;;;12.80;99.90;;;;;;4955606;28;20541;-68
2022/05/25 03:50:19;;;;;;;58.13;55.17;;;12.90;99.90;;;;;;4955752;28;20189;-67
2022/05/25 03:52:47;;;;;;;94.10;89.20;;;12.80;99.90;;;;;;4955602;28;20189;-67
2022/05/25 03:55:13;;;;;;;62.63;59.23;;;12.90;99.90;;;;;;4952108;28;20217;-70
2022/05/25 03:57:39;;;;;;;34.13;32.10;;;12.90;99.90;;;;;;4954476;28;20665;-68
2022/05/25 04:00:06;;;;;;;21.37;20.23;;;12.90;99.90;;;;;;4955680;28;20178;-67
2022/05/25 04:02:32;;;;;;;16.70;15.87;;;12.80;99.90;;;;;;4954921;28;20199;-68
2022/05/25 04:05:07;;;;;;;48.03;45.50;;;12.80;99.90;;;;;;4955327;28;20198;-67
2022/05/25 04:07:47;;;;;;;73.70;69.97;;;12.80;99.90;;;;;;4955095;29;20280;-67
2022/05/25 04:10:17;;;;;;;146.63;138.77;;;12.70;99.90;;;;;;4955471;28;20657;-68
2022/05/25 04:12:43;;;;;;;135.67;128.80;;;12.80;99.90;;;;;;4953456;29;20193;-68
2022/05/25 04:15:13;;;;;;;137.40;130.47;;;12.80;99.90;;;;;;4954746;28;20307;-68
2022/05/25 04:17:38;;;;;;;89.83;84.93;;;12.80;99.90;;;;;;4954819;28;20182;-68
2022/05/25 04:20:06;;;;;;;61.20;57.83;;;12.90;99.90;;;;;;4954835;29;20236;-67
2022/05/25 04:22:32;;;;;;;172.77;163.80;;;13.00;99.90;;;;;;4954833;28;20185;-67
2022/05/25 04:24:59;;;;;;;143.63;136.27;;;13.10;99.90;;;;;;4953568;29;20213;-68
2022/05/25 04:27:26;;;;;;;29.67;28.07;;;13.10;99.90;;;;;;4953933;28;20296;-68
2022/05/25 04:29:52;;;;;;;13.93;13.07;;;13.10;99.90;;;;;;4954326;28;20197;-68
2022/05/25 04:32:18;;;;;;;9.10;8.40;;;13.00;99.90;;;;;;4952756;29;20212;-68
2022/05/25 04:34:44;;;;;;;7.93;7.33;;;13.00;99.90;;;;;;4953182;28;20200;-68
2022/05/25 04:39:55;;;;;;;10.97;10.27;;;12.90;99.90;;;;;;4954177;28;20561;-68
2022/05/25 04:42:21;;;;;;;9.00;8.27;;;13.00;99.90;;;;;;4954077;29;20333;-68
2022/05/25 04:44:48;;;;;;;9.80;9.20;;;13.00;99.90;;;;;;4954367;29;20348;-68
2022/05/25 04:47:13;;;;;;;10.03;9.33;;;13.00;99.90;;;;;;4954195;29;20300;-67
2022/05/25 04:49:44;;;;;;;8.60;8.07;;;13.00;99.90;;;;;;4953949;29;20577;-67
2022/05/25 04:52:10;;;;;;;8.10;7.80;;;13.00;99.90;;;;;;4954506;29;20178;-68
2022/05/25 04:54:36;;;;;;;8.30;7.70;;;13.10;99.90;;;;;;4954013;28;20222;-68
2022/05/25 04:57:20;;;;;;;10.37;9.30;;;13.20;99.90;;;;;;4953815;29;20435;-69
2022/05/25 04:59:54;;;;;;;9.93;9.43;;;13.30;99.90;;;;;;4954418;29;20613;-68
2022/05/25 05:02:20;;;;;;;11.30;10.70;;;13.40;99.90;;;;;;4954607;29;20190;-68
2022/05/25 05:04:47;;;;;;;13.23;12.10;;;13.50;99.90;;;;;;4954675;28;20246;-68
2022/05/25 05:07:14;;;;;;;15.57;14.77;;;13.60;99.90;;;;;;4954226;29;20209;-69
2022/05/25 05:09:43;;;;;;;18.03;16.73;;;13.70;99.90;;;;;;4952642;29;20184;-68
2022/05/25 05:12:10;;;;;;;16.83;16.03;;;13.70;99.90;;;;;;4953987;28;20554;-68
2022/05/25 05:14:37;;;;;;;12.27;11.30;;;13.80;99.90;;;;;;4953581;28;20241;-68
2022/05/25 05:17:05;;;;;;;53.30;50.53;;;13.90;99.90;;;;;;4953948;28;20592;-68
2022/05/25 05:19:31;;;;;;;116.30;110.47;;;14.00;99.90;;;;;;4953373;28;20186;-68
2022/05/25 05:21:57;;;;;;;156.70;148.67;;;14.00;99.90;;;;;;4953914;29;20593;-68
2022/05/25 05:24:24;;;;;;;156.00;148.17;;;14.00;99.90;;;;;;4953506;28;20197;-68
2022/05/25 05:26:50;;;;;;;113.53;107.70;;;14.10;99.90;;;;;;4953172;28;20209;-67
2022/05/25 05:29:16;;;;;;;31.87;30.10;;;14.20;99.90;;;;;;4953902;29;20519;-69
2022/05/25 05:31:42;;;;;;;11.13;10.00;;;14.20;99.90;;;;;;4953603;28;20189;-68
2022/05/25 05:34:08;;;;;;;9.60;8.70;;;14.30;99.90;;;;;;4951963;28;20264;-68
2022/05/25 05:36:48;;;;;;;10.40;9.90;;;14.30;99.90;;;;;;4953511;28;20541;-68
2022/05/25 05:39:17;;;;;;;12.20;11.57;;;14.40;99.90;;;;;;4953370;28;20193;-68
2022/05/25 05:41:51;;;;;;;11.60;11.00;;;14.40;99.90;;;;;;4953270;28;20275;-68
2022/05/25 05:44:20;;;;;;;12.80;12.10;;;14.40;99.90;;;;;;4953319;28;20204;-68
2022/05/25 05:46:49;;;;;;;10.83;10.30;;;14.50;99.90;;;;;;4953058;28;20312;-68
2022/05/25 05:49:15;;;;;;;9.77;8.93;;;14.60;99.90;;;;;;4962851;29;20189;-78
2022/05/25 05:51:42;;;;;;;13.10;12.30;;;14.80;99.90;;;;;;4964929;28;20182;-79
2022/05/25 05:54:09;;;;;;;11.30;10.67;;;15.10;99.90;;;;;;4963041;28;20352;-79
2022/05/25 05:56:35;;;;;;;23.20;21.97;;;15.70;99.90;;;;;;4962522;29;20197;-79
2022/05/25 05:59:02;;;;;;;13.57;12.80;;;16.20;99.90;;;;;;4941440;29;20197;-79
2022/05/25 06:01:28;;;;;;;5.97;5.63;;;16.70;99.90;;;;;;4940811;29;20542;-79
2022/05/25 06:03:55;;;;;;;9.63;8.93;;;17.10;99.90;;;;;;4943549;29;20207;-79
2022/05/25 06:06:23;;;;;;;23.37;21.90;;;17.40;99.90;;;;;;4944412;29;20206;-79
2022/05/25 06:08:49;;;;;;;45.87;43.33;;;17.40;99.90;;;;;;4943996;28;20246;-79
2022/05/25 06:11:17;;;;;;;36.47;34.67;;;17.20;99.90;;;;;;4944320;28;20214;-81
2022/05/25 06:13:43;;;;;;;30.53;28.93;;;17.40;99.90;;;;;;4944999;29;20202;-79
2022/05/25 06:21:39;;;;;;;15.03;14.00;;;17.80;99.90;;;;;;4945740;29;20189;-79
2022/05/25 06:24:06;;;;;;;9.93;9.23;;;18.10;99.90;;;;;;4944966;29;20202;-79
2022/05/25 06:26:32;;;;;;;5.67;5.20;;;18.40;99.90;;;;;;4952262;29;20225;-79
2022/05/25 06:28:59;;;;;;;17.97;17.17;;;19.10;99.90;;;;;;4952761;29;20552;-80
2022/05/25 06:31:26;;;;;;;18.17;17.03;;;19.80;99.90;;;;;;4947013;28;20194;-79
2022/05/25 06:33:52;;;;;;;9.30;8.80;;;19.90;99.90;;;;;;4943597;29;20206;-80
2022/05/25 06:36:25;;;;;;;34.40;32.50;;;20.40;99.90;;;;;;4944414;28;20186;-80
2022/05/25 06:38:51;;;;;;;27.25;25.95;;;21.10;99.90;;;;;;4943067;29;20198;-80
2022/05/25 06:41:17;;;;;;;22.42;21.23;;;21.80;99.90;;;;;;4943342;29;20186;-80
2022/05/25 06:43:44;;;;;;;7.85;7.20;;;22.50;99.90;;;;;;4944476;29;20221;-80
2022/05/25 06:46:11;;;;;;;4.68;4.50;;;22.60;99.90;;;;;;4944011;29;20213;-80
2022/05/25 06:48:38;;;;;;;6.10;5.82;;;23.10;99.90;;;;;;4943303;29;20269;-80
2022/05/25 06:51:11;;;;;;;4.78;4.47;;;23.40;99.90;;;;;;4952449;29;20208;-79
2022/05/25 06:53:37;;;;;;;4.55;4.20;;;23.20;99.90;;;;;;4940403;29;20593;-79
2022/05/25 06:56:02;;;;;;;4.80;4.50;;;22.70;99.90;;;;;;4943131;29;20174;-80
2022/05/25 06:58:28;;;;;;;3.47;3.38;;;22.90;99.90;;;;;;4954846;29;20363;-79
2022/05/25 07:00:54;;;;;;;3.38;3.17;;;23.30;99.90;;;;;;4945386;29;20229;-80
2022/05/25 07:03:21;;;;;;;4.25;3.95;;;23.90;99.60;;;;;;4944528;29;20182;-80
2022/05/25 07:05:47;;;;;;;3.97;3.75;;;24.00;97.60;;;;;;4946691;29;20220;-80
2022/05/25 07:08:13;;;;;;;3.83;3.55;;;24.00;95.60;;;;;;4947564;28;20674;-80
2022/05/25 07:10:45;;;;;;;3.25;2.97;;;23.50;95.90;;;;;;4946716;29;20230;-80
2022/05/25 07:13:15;;;;;;;3.17;2.97;;;23.60;94.10;;;;;;4946383;29;20186;-80
2022/05/25 07:15:42;;;;;;;3.50;3.33;;;23.60;95.10;;;;;;4947191;29;20213;-80
2022/05/25 07:18:08;;;;;;;3.38;3.15;;;24.10;94.90;;;;;;4948248;28;20194;-81
2022/05/25 07:20:34;;;;;;;4.28;4.05;;;24.30;93.50;;;;;;4958197;29;20290;-80
2022/05/25 07:23:00;;;;;;;4.15;3.97;;;24.30;93.30;;;;;;4949596;29;20182;-80
2022/05/25 07:25:26;;;;;;;5.05;4.85;;;24.50;90.30;;;;;;4947121;28;20686;-80
2022/05/25 07:27:52;;;;;;;3.63;3.35;;;24.70;90.20;;;;;;4944528;29;20186;-80
2022/05/25 07:30:18;;;;;;;3.53;3.33;;;24.90;90.30;;;;;;4947004;29;20182;-80
2022/05/25 07:32:45;;;;;;;4.20;3.17;;;24.30;90.50;;;;;;4949463;29;20225;-80
2022/05/25 07:35:13;;;;;;;3.42;3.28;;;24.10;88.70;;;;;;4951638;28;20210;-80
2022/05/25 07:37:41;;;;;;;3.95;3.30;;;23.70;90.60;;;;;;4949552;29;20189;-80
2022/05/25 07:40:13;;;;;;;3.47;3.35;;;23.50;91.60;;;;;;4954027;29;20186;-80
2022/05/25 07:42:45;;;;;;;3.55;3.42;;;23.60;92.20;;;;;;4946789;28;20190;-81
2022/05/25 07:45:12;;;;;;;4.13;3.83;;;24.10;91.20;;;;;;4946443;28;20202;-81
2022/05/25 07:47:38;;;;;;;4.20;4.00;;;24.90;90.60;;;;;;4949102;28;20202;-80
2022/05/25 07:50:05;;;;;;;4.63;4.20;;;25.00;87.70;;;;;;4956524;29;20181;-80
2022/05/25 07:52:34;;;;;;;4.13;3.83;;;24.60;85.80;;;;;;4956752;29;20182;-80
2022/05/25 07:55:02;;;;;;;4.38;4.15;;;24.50;88.40;;;;;;4954815;28;20698;-81
2022/05/25 07:57:28;;;;;;;4.03;3.80;;;24.30;88.60;;;;;;4947780;29;20331;-81
2022/05/25 07:59:54;;;;;;;3.70;3.42;;;24.30;86.80;;;;;;4947005;29;20187;-81
2022/05/25 08:08:07;;;;;;;5.00;4.70;;;23.50;88.50;;;;;;4946297;29;20375;-81
2022/05/25 08:10:34;;;;;;;3.47;3.20;;;23.40;88.50;;;;;;4943616;29;20241;-81
2022/05/25 08:13:01;;;;;;;4.85;3.63;;;23.20;85.50;;;;;;4943537;29;20189;-80
2022/05/25 08:15:28;;;;;;;5.10;4.75;;;22.80;88.30;;;;;;4943224;28;20218;-80
2022/05/25 08:17:55;;;;;;;3.45;3.35;;;22.30;88.50;;;;;;4944892;29;20186;-80
2022/05/25 08:20:21;;;;;;;4.13;3.92;;;22.20;90.40;;;;;;4945286;29;20179;-82
2022/05/25 08:22:48;;;;;;;5.18;4.78;;;22.40;87.10;;;;;;4956302;29;20670;-81
2022/05/25 08:25:17;;;;;;;6.20;5.80;;;22.20;90.10;;;;;;4948099;29;20198;-81
2022/05/25 08:27:43;;;;;;;6.57;6.05;;;22.50;90.90;;;;;;4944031;29;20595;-81
2022/05/25 08:30:13;;;;;;;4.00;3.80;;;23.10;91.00;;;;;;4944647;29;20186;-81
2022/05/25 08:32:40;;;;;;;4.53;4.20;;;23.60;90.20;;;;;;4944705;29;20222;-81
2022/05/25 08:35:07;;;;;;;4.13;3.78;;;24.20;84.30;;;;;;4945482;28;20218;-81
2022/05/25 08:37:33;;;;;;;3.85;3.50;;;23.60;87.20;;;;;;4936295;29;20238;-80
2022/05/25 08:39:59;;;;;;;4.10;3.80;;;22.60;81.40;;;;;;4935496;29;20226;-80
2022/05/25 08:42:29;;;;;;;4.60;4.40;;;21.80;91.10;;;;;;4938517;29;20623;-80
2022/05/25 08:44:56;;;;;;;4.40;4.03;;;22.00;89.50;;;;;;4936403;29;20228;-80
2022/05/25 08:47:22;;;;;;;3.85;3.55;;;22.80;84.10;;;;;;4937727;29;20269;-80
2022/05/25 08:49:51;;;;;;;4.43;3.75;;;23.30;81.40;;;;;;4940500;29;20190;-80
2022/05/25 08:52:23;;;;;;;3.40;3.20;;;24.00;77.80;;;;;;4944659;28;20201;-80
2022/05/25 08:54:50;;;;;;;3.80;3.50;;;24.50;76.30;;;;;;4942841;29;20207;-79
2022/05/25 08:57:22;;;;;;;3.83;3.45;;;25.10;76.40;;;;;;4947422;28;20217;-80
2022/05/25 08:59:56;;;;;;;4.75;4.45;;;25.40;78.10;;;;;;4953565;28;20216;-80
2022/05/25 09:02:56;;;;;;;3.42;3.05;;;24.90;78.80;;;;;;4945108;29;20185;-80
2022/05/25 09:05:37;;;;;;;4.00;3.80;;;25.10;77.90;;;;;;4943898;29;20242;-80
2022/05/25 09:08:16;;;;;;;3.65;3.53;;;25.40;77.80;;;;;;4943053;28;20186;-79
2022/05/25 09:10:49;;;;;;;4.53;4.28;;;25.40;76.50;;;;;;4950774;29;20178;-78
2022/05/25 09:13:23;;;;;;;4.55;4.25;;;25.80;66.00;;;;;;4949013;28;20206;-80
2022/05/25 09:18:42;;;;;;;3.22;3.03;;;26.60;71.80;;;;;;4979974;28;20185;-78
2022/05/25 09:21:08;;;;;;;5.68;5.40;;;26.30;72.90;;;;;;4976698;28;20181;-78
2022/05/25 09:23:35;;;;;;;6.90;6.47;;;26.30;69.30;;;;;;4976914;28;20177;-78
2022/05/25 09:26:01;;;;;;;4.82;4.63;;;25.40;69.20;;;;;;4974738;28;20205;-78
2022/05/25 09:28:35;;;;;;;4.38;3.72;;;24.60;70.60;;;;;;4956915;28;20209;-77
2022/05/25 09:31:03;;;;;;;5.20;3.65;;;24.20;72.90;;;;;;4959995;29;20208;-78
2022/05/25 09:33:55;;;;;;;4.82;3.83;;;24.40;74.40;;;;;;4958009;29;20240;-79
2022/05/25 09:36:26;;;;;;;13.65;11.82;;;25.50;72.60;;;;;;4956117;28;20450;-78
2022/05/25 09:39:06;;;;;;;19.70;15.70;;;25.70;69.70;;;;;;4954922;28;20185;-78
2022/05/25 09:41:33;;;;;;;3.45;3.25;;;25.40;70.70;;;;;;4956441;29;20571;-80
2022/05/25 09:44:06;;;;;;;3.90;3.33;;;25.40;69.60;;;;;;4957668;28;20246;-80
2022/05/25 09:46:39;;;;;;;5.35;5.05;;;26.00;69.10;;;;;;4955724;29;20235;-80
2022/05/25 09:49:08;;;;;;;12.57;11.40;;;26.70;65.40;;;;;;4956620;28;20240;-78
2022/05/25 09:51:34;;;;;;;5.22;4.82;;;25.80;66.20;;;;;;4955099;28;20189;-81
2022/05/25 09:54:29;;;;;;;3.78;3.47;;;24.40;67.80;;;;;;4953815;28;20186;-78
2022/05/25 09:57:04;;;;;;;3.08;2.95;;;23.50;71.40;;;;;;4954822;28;20308;-79
2022/05/25 09:59:39;;;;;;;5.07;4.63;;;23.20;71.50;;;;;;4956167;29;20268;-79
2022/05/25 10:02:47;;;;;;;5.03;4.70;;;22.90;74.10;;;;;;4960419;28;20185;-79
2022/05/25 10:05:23;;;;;;;3.80;3.70;;;23.00;72.60;;;;;;4922786;29;20223;-78
2022/05/25 10:07:55;;;;;;;4.45;4.25;;;23.90;73.50;;;;;;4920058;29;20213;-77
2022/05/25 10:10:32;;;;;;;7.97;7.28;;;24.90;69.10;;;;;;4954089;29;20205;-78
2022/05/25 10:13:22;;;;;;;5.65;4.28;;;26.40;67.30;;;;;;4962660;28;20280;-79
2022/05/25 10:15:51;;;;;;;5.90;5.32;;;27.20;61.70;;;;;;4970751;28;20258;-79
2022/05/25 10:18:35;;;;;;;4.22;4.00;;;25.50;64.50;;;;;;4970318;28;20254;-80
2022/05/25 10:21:03;;;;;;;3.50;3.33;;;24.20;68.40;;;;;;4959619;28;20283;-80
2022/05/25 10:23:30;;;;;;;3.97;3.60;;;23.60;70.30;;;;;;4958865;28;20178;-79
2022/05/25 10:26:23;;;;;;;5.13;4.85;;;23.00;71.80;;;;;;4956530;28;20213;-78
2022/05/25 10:29:07;;;;;;;4.03;3.83;;;22.20;74.70;;;;;;4957506;28;20185;-79
2022/05/25 10:37:32;;;;;;;3.85;3.75;;;22.60;74.40;;;;;;4952823;29;20241;-79
2022/05/25 10:40:01;;;;;;;4.63;4.43;;;23.60;69.40;;;;;;4956891;28;20181;-79
2022/05/25 10:42:46;;;;;;;4.50;4.30;;;23.60;69.70;;;;;;4956783;28;20728;-78
2022/05/25 10:45:41;;;;;;;3.83;3.63;;;24.00;72.10;;;;;;4961705;28;20284;-79
2022/05/25 10:48:37;;;;;;;3.67;3.35;;;25.30;67.70;;;;;;4960306;29;20221;-79
2022/05/25 10:51:13;;;;;;;6.47;5.97;;;26.80;62.00;;;;;;4962201;28;20185;-79
2022/05/25 10:57:02;;;;;;;7.57;7.07;;;26.10;60.30;;;;;;4958975;29;20221;-78
2022/05/25 10:59:50;;;;;;;7.25;6.95;;;25.80;62.90;;;;;;4958914;28;20193;-79
2022/05/25 11:02:41;;;;;;;5.72;5.47;;;25.10;62.90;;;;;;4960443;29;20550;-79
2022/05/25 11:05:10;;;;;;;3.38;3.17;;;24.40;61.30;;;;;;4958797;28;20201;-78
2022/05/25 11:07:41;;;;;;;3.47;2.95;;;24.50;66.10;;;;;;4959813;28;20188;-79
2022/05/25 11:10:54;;;;;;;3.53;3.22;;;24.40;67.30;;;;;;4958656;28;20189;-79
2022/05/25 11:13:37;;;;;;;5.95;3.78;;;25.30;65.60;;;;;;4960585;28;20201;-80
2022/05/25 11:16:35;;;;;;;4.00;3.80;;;25.10;65.50;;;;;;4957885;28;20352;-79
2022/05/25 11:19:35;;;;;;;4.30;3.80;;;25.10;67.10;;;;;;4959427;28;20186;-79
2022/05/25 11:22:01;;;;;;;5.75;5.35;;;25.40;64.60;;;;;;4943691;29;20197;-79
2022/05/25 11:24:55;;;;;;;5.43;4.85;;;24.80;64.70;;;;;;4959967;28;20579;-80
2022/05/25 11:27:48;;;;;;;2.92;2.75;;;24.20;65.40;;;;;;4940113;28;20229;-79
2022/05/25 11:30:28;;;;;;;4.50;4.15;;;23.60;68.30;;;;;;4961575;28;20193;-79
2022/05/25 11:33:21;;;;;;;3.63;3.33;;;23.40;65.40;;;;;;4964629;28;20222;-79
2022/05/25 11:36:04;;;;;;;4.53;3.33;;;23.60;66.30;;;;;;4968280;28;20697;-79
2022/05/25 11:38:52;;;;;;;3.78;3.60;;;23.60;63.90;;;;;;4963123;28;20274;-79
2022/05/25 11:41:21;;;;;;;3.03;2.85;;;23.40;64.30;;;;;;4959158;28;20557;-79
2022/05/25 11:44:10;;;;;;;3.60;3.30;;;23.40;64.50;;;;;;4958434;28;20653;-79
2022/05/25 11:46:45;;;;;;;3.33;3.08;;;23.60;64.40;;;;;;4955919;28;20209;-79
2022/05/25 11:49:35;;;;;;;3.53;3.22;;;24.30;66.40;;;;;;4962356;28;20189;-79
2022/05/25 11:52:04;;;;;;;3.30;3.08;;;26.00;64.10;;;;;;4963726;28;20209;-79
2022/05/25 11:54:39;;;;;;;5.57;5.15;;;26.20;63.30;;;;;;4962631;28;20300;-79
2022/05/25 11:57:28;;;;;;;6.10;5.90;;;26.60;61.00;;;;;;4957935;28;20185;-79
2022/05/25 11:59:59;;;;;;;7.00;6.70;;;27.30;63.70;;;;;;4958257;29;20285;-80
2022/05/25 12:02:37;;;;;;;5.53;3.85;;;27.60;56.00;;;;;;4958641;28;20192;-80
2022/05/25 12:05:23;;;;;;;4.28;2.97;;;28.70;54.80;;;;;;4957929;28;20217;-79
2022/05/25 12:08:42;;;;;;;3.67;2.45;;;29.00;52.90;;;;;;4957849;28;20190;-79
2022/05/25 12:11:38;;;;;;;6.50;6.20;;;29.70;51.40;;;;;;4957338;29;20193;-78
2022/05/25 12:14:13;;;;;;;2.83;2.63;;;30.50;51.40;;;;;;4956827;28;20206;-79
2022/05/25 12:16:42;;;;;;;3.03;2.88;;;31.30;48.10;;;;;;4958230;28;20197;-79
2022/05/25 12:19:19;;;;;;;3.50;3.30;;;31.10;49.30;;;;;;4959643;28;20182;-79
2022/05/25 12:21:53;;;;;;;3.90;3.70;;;30.20;49.00;;;;;;4958303;28;20545;-79
2022/05/25 12:24:30;;;;;;;3.65;3.38;;;29.50;49.50;;;;;;4957004;28;20241;-78
2022/05/25 12:27:00;;;;;;;3.80;3.58;;;30.10;48.90;;;;;;4957465;28;20213;-78
2022/05/25 12:29:33;;;;;;;9.00;8.57;;;30.80;47.50;;;;;;4956310;28;20182;-78
2022/05/25 12:31:59;;;;;;;13.18;12.38;;;31.90;46.90;;;;;;4958149;28;20189;-79
2022/05/25 12:34:39;;;;;;;5.93;5.63;;;32.00;45.40;;;;;;4957080;28;20200;-79
2022/05/25 12:37:06;;;;;;;8.73;8.32;;;31.30;43.70;;;;;;4957948;28;20617;-79
2022/05/25 12:39:47;;;;;;;5.28;4.97;;;30.90;46.20;;;;;;4958003;28;20182;-80
2022/05/25 12:42:43;;;;;;;17.77;16.83;;;30.20;44.70;;;;;;4956392;29;20197;-79
2022/05/25 12:48:30;;;;;;;3.40;2.65;;;27.60;49.40;;;;;;4958117;29;20193;-79
2022/05/25 12:51:24;;;;;;;4.55;4.20;;;26.90;51.30;;;;;;4961343;28;20185;-78
2022/05/25 12:53:50;;;;;;;4.35;4.05;;;26.70;53.30;;;;;;4963355;28;20190;-78
2022/05/25 12:56:19;;;;;;;3.30;3.10;;;27.10;53.20;;;;;;4962819;28;20232;-79
2022/05/25 12:58:48;;;;;;;4.55;4.25;;;28.50;52.50;;;;;;4969385;28;20185;-78
2022/05/25 13:01:28;;;;;;;4.20;4.03;;;28.70;49.30;;;;;;4965909;28;20649;-79
2022/05/25 13:03:54;;;;;;;3.10;2.90;;;29.70;50.10;;;;;;4962990;28;20181;-78
2022/05/25 13:06:29;;;;;;;11.45;10.88;;;30.90;46.10;;;;;;4966118;28;20225;-78
2022/05/25 13:08:58;;;;;;;12.52;11.48;;;31.20;44.30;;;;;;4958720;28;20289;-78
2022/05/25 13:11:30;;;;;;;11.00;10.52;;;30.90;44.00;;;;;;4957102;28;20237;-79
2022/05/25 13:14:00;;;;;;;8.65;8.25;;;29.60;44.40;;;;;;4956278;28;20197;-78
2022/05/25 13:16:42;;;;;;;3.88;3.33;;;28.50;46.60;;;;;;4957401;28;20197;-78
2022/05/25 13:19:32;;;;;;;11.00;10.45;;;29.10;49.00;;;;;;4957311;29;20200;-78
2022/05/25 13:22:06;;;;;;;8.57;8.07;;;30.50;45.80;;;;;;4956486;28;20181;-78
2022/05/25 13:25:03;;;;;;;15.45;14.57;;;30.10;45.10;;;;;;5072568;28;20681;-80
2022/05/25 13:27:58;;;;;;;16.15;15.07;;;30.80;43.50;;;;;;5071084;28;20509;-79
2022/05/25 13:30:36;;;;;;;13.98;12.95;;;31.50;43.80;;;;;;5075492;28;20205;-79
2022/05/25 13:33:20;;;;;;;7.82;7.50;;;31.20;43.70;;;;;;5074864;28;20240;-79
2022/05/25 13:38:34;;;;;;;13.00;12.40;;;30.50;44.20;;;;;;5050235;28;20221;-81
2022/05/25 13:41:17;;;;;;;8.80;8.50;;;30.00;44.90;;;;;;5049994;28;20189;-79
2022/05/25 13:43:55;;;;;;;5.18;4.88;;;30.40;42.90;;;;;;5032379;28;20210;-79
2022/05/25 13:46:31;;;;;;;2.80;2.60;;;31.30;42.90;;;;;;5033483;28;20201;-79
2022/05/25 13:48:57;;;;;;;3.15;3.00;;;32.20;41.00;;;;;;5056673;28;20179;-80
2022/05/25 13:51:24;;;;;;;4.03;3.70;;;32.60;41.30;;;;;;5040523;28;20175;-80
2022/05/25 13:53:51;;;;;;;7.28;6.95;;;31.40;42.00;;;;;;5043905;28;20185;-80
2022/05/25 13:56:27;;;;;;;17.20;16.25;;;29.20;43.10;;;;;;5044841;28;20614;-80
2022/05/25 13:59:04;;;;;;;15.35;14.50;;;28.20;48.00;;;;;;5038815;28;20186;-80
2022/05/25 14:01:30;;;;;;;9.18;8.68;;;29.40;46.40;;;;;;5056775;28;20285;-80
2022/05/25 14:04:09;;;;;;;18.08;16.92;;;30.50;44.90;;;;;;5045046;28;20201;-79
2022/05/25 14:06:43;;;;;;;8.35;7.95;;;31.80;43.00;;;;;;5044996;28;20194;-79
2022/05/25 14:11:56;;;;;;;15.35;14.55;;;29.40;45.80;;;;;;5058463;28;20244;-80
2022/05/25 14:14:31;;;;;;;17.48;16.60;;;30.60;45.10;;;;;;5040367;28;20182;-80
2022/05/25 14:17:00;;;;;;;2.97;2.78;;;31.40;43.20;;;;;;5060058;28;20206;-80
2022/05/25 14:19:29;;;;;;;3.30;3.00;;;31.90;40.50;;;;;;5037343;28;20190;-80
2022/05/25 14:21:59;;;;;;;16.33;14.60;;;32.70;40.20;;;;;;5037998;28;20650;-80
2022/05/25 14:24:46;;;;;;;6.15;5.63;;;33.20;39.80;;;;;;5038302;28;20206;-80
2022/05/25 14:27:33;;;;;;;4.15;3.72;;;33.60;38.70;;;;;;5037311;28;20202;-80
2022/05/25 14:30:23;;;;;;;4.45;4.05;;;33.20;38.90;;;;;;5038099;28;20185;-80
2022/05/25 14:33:00;;;;;;;2.50;2.30;;;32.40;40.50;;;;;;5038535;28;20699;-80
2022/05/25 14:35:27;;;;;;;4.35;4.15;;;31.80;40.40;;;;;;5034560;28;20213;-80
2022/05/25 14:37:54;;;;;;;2.35;2.13;;;31.80;41.30;;;;;;5029166;28;20244;-82
2022/05/25 14:40:25;;;;;;;2.67;2.50;;;31.90;41.00;;;;;;5043268;28;20277;-80
2022/05/25 14:42:59;;;;;;;4.65;4.45;;;31.00;41.10;;;;;;5023840;28;20223;-80
2022/05/25 14:45:27;;;;;;;23.73;22.52;;;29.10;43.50;;;;;;5023878;28;20206;-80
2022/05/25 14:48:12;;;;;;;8.25;7.82;;;27.80;46.30;;;;;;5024969;28;20194;-79
2022/05/25 14:50:43;;;;;;;3.00;2.78;;;27.50;45.80;;;;;;5048466;28;20557;-79
2022/05/25 14:53:13;;;;;;;3.55;3.33;;;28.00;47.00;;;;;;5028949;28;20560;-79
2022/05/25 14:55:55;;;;;;;3.88;3.58;;;28.30;45.30;;;;;;5025936;28;20191;-79
2022/05/25 14:58:24;;;;;;;4.82;4.40;;;27.50;47.00;;;;;;5053126;28;20208;-78
2022/05/25 15:01:12;;;;;;;8.32;7.93;;;27.00;46.90;;;;;;5059605;28;20206;-78
2022/05/25 15:03:50;;;;;;;10.73;10.32;;;26.90;48.50;;;;;;5060695;28;20206;-79
2022/05/25 15:06:19;;;;;;;10.45;9.95;;;27.30;47.10;;;;;;5061965;28;20194;-79
2022/05/25 15:08:51;;;;;;;10.23;9.73;;;27.30;48.30;;;;;;5061289;28;20726;-79
2022/05/25 15:11:17;;;;;;;7.43;7.03;;;28.20;46.60;;;;;;5044491;28;20182;-79
2022/05/25 15:19:23;;;;;;;8.85;8.23;;;25.80;49.60;;;;;;5071696;28;20186;-80
2022/05/25 15:21:50;;;;;;;7.13;6.63;;;25.00;51.10;;;;;;5061485;28;20189;-80
2022/05/25 15:24:17;;;;;;;4.03;3.83;;;25.40;51.20;;;;;;5048647;28;20214;-79
2022/05/25 15:27:20;;;;;;;6.93;6.32;;;26.60;48.90;;;;;;5064667;28;20215;-81
2022/05/25 15:29:50;;;;;;;8.93;8.52;;;28.40;46.70;;;;;;5046429;28;20186;-79
2022/05/25 15:32:16;;;;;;;9.68;9.07;;;27.50;46.70;;;;;;5062897;28;20224;-79
2022/05/25 15:34:41;;;;;;;6.53;5.80;;;26.40;49.10;;;;;;5045945;28;20182;-80
2022/05/25 15:37:34;;;;;;;12.25;11.55;;;26.70;49.70;;;;;;5065211;28;20218;-79
2022/05/25 15:40:00;;;;;;;8.27;7.63;;;27.90;47.00;;;;;;5063770;28;20202;-79
2022/05/25 15:42:26;;;;;;;3.35;3.15;;;29.20;45.40;;;;;;5063211;28;20179;-80
2022/05/25 15:44:52;;;;;;;4.32;4.03;;;30.00;43.90;;;;;;5064449;28;20201;-80
2022/05/25 15:47:18;;;;;;;3.90;3.65;;;30.00;43.50;;;;;;5063132;28;20195;-79
2022/05/25 15:49:44;;;;;;;7.00;6.75;;;29.90;43.90;;;;;;5045916;28;20189;-80
2022/05/25 15:52:12;;;;;;;7.72;7.15;;;29.90;43.00;;;;;;5060816;28;20174;-79
2022/05/25 15:54:39;;;;;;;2.90;2.40;;;28.10;43.60;;;;;;5059778;28;20562;-79
2022/05/25 15:57:06;;;;;;;4.18;3.97;;;27.00;46.20;;;;;;5060415;28;20622;-79
2022/05/25 15:59:36;;;;;;;10.18;7.88;;;26.80;46.60;;;;;;5042332;28;20280;-79
2022/05/25 16:02:02;;;;;;;10.65;10.25;;;27.20;47.00;;;;;;5059964;28;20666;-79
2022/05/25 16:04:31;;;;;;;8.75;8.25;;;27.60;45.90;;;;;;5059731;28;20246;-79
2022/05/25 16:06:59;;;;;;;14.00;12.73;;;27.60;46.00;;;;;;5061297;28;20194;-79
2022/05/25 16:09:26;;;;;;;18.10;16.10;;;28.10;45.20;;;;;;5041631;28;20625;-80
2022/05/25 16:11:54;;;;;;;16.88;15.07;;;28.10;44.60;;;;;;5060247;28;20174;-78
2022/05/25 16:14:21;;;;;;;10.77;9.77;;;28.20;44.90;;;;;;5057870;28;20182;-80
2022/05/25 16:16:48;;;;;;;6.35;5.82;;;28.10;46.00;;;;;;5055434;28;20198;-80
2022/05/25 16:19:15;;;;;;;5.05;4.65;;;28.50;45.70;;;;;;5059500;28;20202;-79
2022/05/25 16:21:41;;;;;;;5.07;3.83;;;28.90;45.10;;;;;;5059220;28;20672;-80
2022/05/25 16:24:09;;;;;;;4.05;3.75;;;29.00;46.00;;;;;;5034597;28;20206;-80
2022/05/25 16:26:39;;;;;;;3.85;3.63;;;28.80;44.20;;;;;;5032778;28;20191;-81
2022/05/25 16:29:06;;;;;;;3.22;3.13;;;28.50;44.10;;;;;;5045738;28;20190;-81
2022/05/25 16:31:33;;;;;;;3.88;3.58;;;28.00;44.90;;;;;;5036292;28;20175;-78
2022/05/25 16:34:03;;;;;;;6.30;5.80;;;26.80;46.80;;;;;;5043758;28;20646;-81
2022/05/25 16:36:30;;;;;;;7.97;7.45;;;25.50;49.20;;;;;;5025088;28;20233;-80
2022/05/25 16:38:57;;;;;;;6.57;6.20;;;24.40;52.10;;;;;;5039371;28;20186;-80
2022/05/25 16:41:26;;;;;;;12.25;11.70;;;23.80;53.90;;;;;;5036804;28;20191;-78
2022/05/25 16:43:52;;;;;;;17.35;16.23;;;23.30;54.90;;;;;;5030851;28;20220;-80
2022/05/25 16:46:18;;;;;;;19.63;18.65;;;23.00;55.30;;;;;;5037441;28;20546;-82